createdAt,value
2023-02-07T00:00:56.360Z,10.48
2023-02-07T00:03:23.145Z,10.20
2023-02-07T00:05:49.958Z,9.45
2023-02-07T00:08:17.085Z,9.90
2023-02-07T00:10:43.955Z,11.02
2023-02-07T00:13:10.815Z,10.93
2023-02-07T00:15:38.090Z,12.32
2023-02-07T00:18:05.056Z,11.05
2023-02-07T00:20:31.817Z,10.65
2023-02-07T00:22:58.882Z,10.68
2023-02-07T00:25:25.744Z,11.20
2023-02-07T00:27:52.653Z,11.25
2023-02-07T00:30:19.682Z,11.02
2023-02-07T00:32:46.477Z,11.35
2023-02-07T00:35:13.376Z,10.98
2023-02-07T00:37:40.348Z,11.00
2023-02-07T00:40:07.396Z,11.65
2023-02-07T00:42:34.217Z,10.85
2023-02-07T00:45:01.186Z,10.80
2023-02-07T00:47:27.993Z,11.90
2023-02-07T00:49:54.672Z,10.70
2023-02-07T00:52:21.488Z,12.85
2023-02-07T00:54:48.628Z,11.80
2023-02-07T00:57:15.401Z,12.25
2023-02-07T00:59:42.882Z,12.10
2023-02-07T01:02:09.710Z,13.13
2023-02-07T01:04:37.022Z,10.63
2023-02-07T01:07:04.085Z,10.65
2023-02-07T01:09:31.128Z,11.00
2023-02-07T01:11:58.522Z,12.77
2023-02-07T01:14:25.776Z,12.40
2023-02-07T01:16:52.769Z,12.43
2023-02-07T01:19:19.851Z,12.40
2023-02-07T01:21:46.792Z,12.38
2023-02-07T01:24:13.570Z,12.30
2023-02-07T01:26:40.271Z,11.80
2023-02-07T01:29:07.720Z,12.13
2023-02-07T01:31:35.385Z,13.40
2023-02-07T01:34:05.272Z,12.35
2023-02-07T01:36:32.535Z,12.25
2023-02-07T01:38:59.372Z,12.90
2023-02-07T01:41:27.035Z,12.75
2023-02-07T01:43:54.805Z,11.80
2023-02-07T01:46:21.615Z,12.70
2023-02-07T01:48:48.753Z,12.43
2023-02-07T01:51:16.482Z,13.18
2023-02-07T01:53:43.434Z,13.15
2023-02-07T01:56:25.954Z,10.93
2023-02-07T01:59:00.830Z,12.68
2023-02-07T02:01:27.693Z,12.30
2023-02-07T02:03:55.807Z,13.15
2023-02-07T02:06:24.616Z,12.55
2023-02-07T02:08:54.778Z,12.82
2023-02-07T02:11:25.666Z,13.05
2023-02-07T02:14:22.274Z,13.25
2023-02-07T02:16:55.388Z,11.55
2023-02-07T02:19:28.425Z,13.80
2023-02-07T02:22:19.321Z,12.13
2023-02-07T02:24:52.139Z,11.88
2023-02-07T02:27:22.101Z,13.27
2023-02-07T02:29:59.970Z,11.73
2023-02-07T02:32:36.059Z,12.60
2023-02-07T02:35:02.875Z,13.10
2023-02-07T02:37:42.158Z,13.02
2023-02-07T02:40:12.688Z,13.20
2023-02-07T02:42:39.722Z,12.85
2023-02-07T02:45:15.121Z,13.18
2023-02-07T02:47:44.260Z,14.97
2023-02-07T02:50:12.550Z,15.10
2023-02-07T02:52:50.262Z,15.38
2023-02-07T02:55:41.684Z,17.05
2023-02-07T02:58:24.187Z,14.18
2023-02-07T03:01:06.433Z,15.50
2023-02-07T03:03:33.246Z,16.10
2023-02-07T03:06:16.851Z,17.15
2023-02-07T03:08:56.127Z,15.80
2023-02-07T03:11:23.908Z,15.57
2023-02-07T03:14:10.885Z,15.57
2023-02-07T03:16:37.858Z,16.95
2023-02-07T03:19:08.904Z,16.63
2023-02-07T03:21:42.844Z,14.65
2023-02-07T03:24:15.116Z,18.10
2023-02-07T03:26:44.229Z,15.90
2023-02-07T03:29:13.474Z,18.27
2023-02-07T03:31:41.636Z,16.40
2023-02-07T03:34:12.029Z,17.42
2023-02-07T03:36:49.641Z,19.70
2023-02-07T03:39:16.762Z,17.55
2023-02-07T03:41:51.276Z,18.52
2023-02-07T03:44:19.442Z,19.13
2023-02-07T03:46:48.971Z,17.67
2023-02-07T03:49:17.651Z,18.38
2023-02-07T03:51:44.779Z,17.42
2023-02-07T03:54:11.650Z,16.05
2023-02-07T03:56:38.484Z,18.40
2023-02-07T03:59:05.510Z,18.15
2023-02-07T04:01:33.103Z,19.40
2023-02-07T04:03:59.898Z,18.20
2023-02-07T04:06:26.678Z,19.60
2023-02-07T04:08:53.503Z,19.05
2023-02-07T04:11:20.246Z,18.05
2023-02-07T04:13:47.062Z,19.40
2023-02-07T04:16:13.859Z,16.65
2023-02-07T04:18:40.714Z,16.98
2023-02-07T04:21:08.415Z,18.02
2023-02-07T04:23:35.613Z,16.67
2023-02-07T04:26:02.637Z,18.30
2023-02-07T04:28:29.864Z,17.70
2023-02-07T04:30:57.175Z,20.08
2023-02-07T04:33:24.260Z,17.50
2023-02-07T04:35:57.978Z,19.42
2023-02-07T04:38:25.184Z,18.30
2023-02-07T04:40:52.127Z,18.05
2023-02-07T04:43:18.962Z,18.88
2023-02-07T04:45:47.122Z,17.08
2023-02-07T04:48:14.068Z,16.25
2023-02-07T04:50:40.983Z,16.65
2023-02-07T04:53:08.073Z,18.00
2023-02-07T04:55:37.413Z,17.02
2023-02-07T04:58:06.420Z,17.88
2023-02-07T05:00:33.640Z,14.43
2023-02-07T05:03:01.015Z,18.20
2023-02-07T05:05:27.762Z,16.02
2023-02-07T05:07:54.623Z,14.25
2023-02-07T05:10:21.331Z,16.63
2023-02-07T05:12:48.256Z,17.52
2023-02-07T05:15:15.092Z,15.68
2023-02-07T05:17:41.839Z,17.35
2023-02-07T05:20:09.074Z,17.15
2023-02-07T05:22:35.852Z,17.63
2023-02-07T05:25:02.616Z,16.75
2023-02-07T05:27:29.656Z,18.58
2023-02-07T05:29:56.511Z,17.20
2023-02-07T05:32:41.994Z,16.50
2023-02-07T05:35:08.942Z,16.98
2023-02-07T05:37:35.697Z,17.73
2023-02-07T05:40:02.391Z,16.00
2023-02-07T05:42:29.393Z,19.25
2023-02-07T05:44:56.169Z,20.27
2023-02-07T05:47:23.162Z,22.45
2023-02-07T05:49:49.987Z,19.30
2023-02-07T05:52:16.893Z,20.77
2023-02-07T05:54:43.894Z,19.40
2023-02-07T05:57:10.900Z,20.88
2023-02-07T05:59:37.792Z,20.58
2023-02-07T06:02:06.474Z,20.65
2023-02-07T06:04:33.448Z,21.75
2023-02-07T06:07:00.175Z,20.98
2023-02-07T06:09:27.000Z,19.35
2023-02-07T06:11:55.487Z,21.88
2023-02-07T06:14:22.682Z,19.98
2023-02-07T06:16:49.941Z,22.63
2023-02-07T06:19:16.728Z,19.67
2023-02-07T06:21:46.739Z,24.73
2023-02-07T06:24:15.092Z,21.98
2023-02-07T06:26:42.990Z,21.13
2023-02-07T06:29:09.958Z,21.92
2023-02-07T06:31:37.143Z,21.23
2023-02-07T06:34:04.083Z,23.98
2023-02-07T06:36:30.887Z,20.67
2023-02-07T06:38:57.797Z,24.80
2023-02-07T06:41:24.873Z,21.95
2023-02-07T06:43:51.657Z,27.48
2023-02-07T06:46:18.714Z,28.20
2023-02-07T06:48:45.448Z,30.67
2023-02-07T06:51:13.491Z,25.88
2023-02-07T06:53:40.332Z,24.92
2023-02-07T06:56:07.478Z,34.97
2023-02-07T06:58:34.487Z,33.55
2023-02-07T07:01:02.116Z,30.80
2023-02-07T07:03:29.626Z,25.45
2023-02-07T07:05:57.291Z,36.03
2023-02-07T07:08:24.509Z,31.50
2023-02-07T07:10:51.344Z,32.45
2023-02-07T07:13:18.344Z,30.42
2023-02-07T07:15:45.409Z,31.77
2023-02-07T07:18:12.664Z,27.95
2023-02-07T07:20:39.493Z,24.75
2023-02-07T07:23:06.410Z,24.75
2023-02-07T07:25:33.230Z,26.98
2023-02-07T07:28:00.072Z,33.08
2023-02-07T07:30:27.023Z,37.63
2023-02-07T07:32:53.735Z,29.40
2023-02-07T07:35:20.669Z,31.38
2023-02-07T07:37:47.438Z,30.83
2023-02-07T07:40:14.326Z,31.45
2023-02-07T07:42:41.451Z,23.75
2023-02-07T07:45:20.214Z,28.05
2023-02-07T07:47:47.152Z,23.95
2023-02-07T07:50:14.456Z,23.23
2023-02-07T07:52:42.968Z,24.77
2023-02-07T07:55:10.021Z,22.77
2023-02-07T07:57:36.917Z,25.00
2023-02-07T08:00:04.300Z,22.83
2023-02-07T08:02:39.806Z,24.90
2023-02-07T08:05:06.727Z,20.50
2023-02-07T08:07:33.484Z,21.90
2023-02-07T08:10:00.284Z,22.58
2023-02-07T08:12:27.254Z,20.75
2023-02-07T08:14:53.989Z,21.80
2023-02-07T08:17:21.874Z,23.65
2023-02-07T08:19:48.744Z,22.30
2023-02-07T08:22:16.506Z,23.95
2023-02-07T08:24:43.316Z,27.08
2023-02-07T08:27:10.094Z,23.05
2023-02-07T08:29:37.170Z,22.55
2023-02-07T08:32:05.467Z,23.70
2023-02-07T08:34:37.443Z,22.58
2023-02-07T08:37:05.307Z,21.85
2023-02-07T08:39:32.486Z,21.17
2023-02-07T08:41:59.400Z,21.67
2023-02-07T08:44:26.441Z,20.45
2023-02-07T08:46:55.919Z,18.73
2023-02-07T08:49:22.991Z,19.05
2023-02-07T08:51:49.842Z,19.33
2023-02-07T08:54:16.502Z,17.80
2023-02-07T08:56:43.222Z,17.48
2023-02-07T08:59:10.140Z,22.42
2023-02-07T09:01:37.084Z,20.98
2023-02-07T09:04:04.067Z,17.65
2023-02-07T09:06:30.966Z,19.00
2023-02-07T09:08:59.022Z,18.42
2023-02-07T09:11:26.029Z,18.42
2023-02-07T09:13:52.884Z,18.98
2023-02-07T09:16:19.774Z,18.35
2023-02-07T09:18:46.567Z,19.95
2023-02-07T09:21:13.339Z,19.50
2023-02-07T09:23:40.558Z,16.77
2023-02-07T09:26:08.000Z,16.45
2023-02-07T09:28:35.906Z,17.05
2023-02-07T09:31:07.397Z,15.25
2023-02-07T09:33:34.270Z,14.85
2023-02-07T09:36:01.165Z,16.45
2023-02-07T09:38:28.452Z,15.25
2023-02-07T09:40:56.012Z,14.52
2023-02-07T09:43:25.968Z,14.70
2023-02-07T09:45:55.665Z,13.15
2023-02-07T09:48:27.750Z,14.23
2023-02-07T09:50:56.114Z,14.18
2023-02-07T09:53:25.525Z,14.27
2023-02-07T09:55:57.696Z,15.10
2023-02-07T09:58:35.239Z,14.38
2023-02-07T10:01:09.203Z,14.48
2023-02-07T10:03:38.219Z,15.68
2023-02-07T10:06:17.901Z,14.65
2023-02-07T10:08:47.588Z,14.10
2023-02-07T10:11:41.930Z,13.35
2023-02-07T10:14:35.191Z,13.20
2023-02-07T10:17:16.597Z,12.27
2023-02-07T10:19:52.159Z,11.23
2023-02-07T10:22:27.062Z,11.63
2023-02-07T10:25:16.997Z,10.80
2023-02-07T10:28:06.853Z,10.63
2023-02-07T10:30:38.365Z,9.32
2023-02-07T10:33:12.620Z,9.40
2023-02-07T10:35:39.768Z,9.52
2023-02-07T10:38:12.094Z,8.73
2023-02-07T10:40:50.326Z,8.35
2023-02-07T10:43:29.293Z,8.88
2023-02-07T10:46:04.617Z,8.35
2023-02-07T10:48:32.913Z,8.10
2023-02-07T10:51:00.530Z,8.52
2023-02-07T10:53:54.209Z,9.25
2023-02-07T10:56:24.071Z,8.80
2023-02-07T10:58:50.862Z,8.65
2023-02-07T11:01:22.120Z,8.90
2023-02-07T11:03:49.565Z,8.65
2023-02-07T11:06:24.220Z,7.70
2023-02-07T11:08:51.533Z,7.68
2023-02-07T11:11:24.386Z,7.28
2023-02-07T11:13:52.318Z,6.95
2023-02-07T11:16:20.885Z,6.68
2023-02-07T11:19:04.872Z,7.95
2023-02-07T11:21:41.945Z,7.95
2023-02-07T11:24:19.637Z,8.55
2023-02-07T11:26:49.585Z,8.20
2023-02-07T11:29:18.774Z,8.10
2023-02-07T11:31:46.054Z,7.97
2023-02-07T11:34:31.736Z,8.88
2023-02-07T11:37:08.774Z,7.70
2023-02-07T11:39:35.553Z,8.15
2023-02-07T11:42:02.741Z,7.40
2023-02-07T11:44:31.005Z,7.25
2023-02-07T11:46:59.200Z,6.88
2023-02-07T11:49:26.061Z,7.03
2023-02-07T11:51:56.482Z,7.15
2023-02-07T11:54:23.813Z,7.35
2023-02-07T11:56:53.751Z,7.18
2023-02-07T11:59:21.866Z,7.65
2023-02-07T12:01:51.512Z,7.07
2023-02-07T12:04:20.669Z,6.55
2023-02-07T12:06:52.602Z,6.20
2023-02-07T12:09:39.734Z,7.20
2023-02-07T12:12:11.994Z,5.93
2023-02-07T12:14:59.036Z,6.47
2023-02-07T12:17:39.828Z,5.70
2023-02-07T12:20:26.117Z,5.88
2023-02-07T12:23:09.791Z,6.50
2023-02-07T12:25:48.505Z,6.43
2023-02-07T12:28:31.318Z,5.88
2023-02-07T12:30:59.629Z,11.85
2023-02-07T12:33:31.457Z,12.60
2023-02-07T12:36:21.794Z,12.27
2023-02-07T12:38:53.993Z,11.43
2023-02-07T12:41:31.213Z,12.27
2023-02-07T12:44:06.265Z,12.00
2023-02-07T12:46:59.842Z,12.55
2023-02-07T12:49:44.721Z,13.52
2023-02-07T12:52:26.562Z,13.95
2023-02-07T12:54:53.636Z,13.85
2023-02-07T12:57:20.360Z,13.85
2023-02-07T12:59:47.112Z,12.45
2023-02-07T13:02:24.866Z,12.43
2023-02-07T13:05:06.802Z,12.30
2023-02-07T13:07:41.999Z,13.85
2023-02-07T13:10:14.855Z,12.98
2023-02-07T13:12:54.413Z,12.52
2023-02-07T13:15:32.368Z,11.95
2023-02-07T13:18:05.536Z,13.18
2023-02-07T13:20:41.365Z,12.80
2023-02-07T13:25:38.536Z,13.80
2023-02-07T13:28:08.017Z,14.15
2023-02-07T13:30:35.663Z,15.15
2023-02-07T13:33:06.126Z,13.65
2023-02-07T13:35:34.687Z,14.23
2023-02-07T13:38:07.409Z,12.95
2023-02-07T13:40:57.686Z,13.43
2023-02-07T13:43:39.400Z,13.40
2023-02-07T13:46:26.873Z,12.80
2023-02-07T13:49:20.348Z,12.52
2023-02-07T13:51:57.926Z,11.32
2023-02-07T13:54:43.500Z,10.70
2023-02-07T13:57:39.801Z,10.48
2023-02-07T14:00:12.752Z,9.85
2023-02-07T14:02:45.780Z,7.35
2023-02-07T14:05:23.838Z,5.85
2023-02-07T14:08:11.029Z,6.32
2023-02-07T14:10:48.677Z,6.93
2023-02-07T14:13:24.478Z,7.40
2023-02-07T14:15:56.023Z,7.57
2023-02-07T14:18:41.316Z,8.20
2023-02-07T14:21:23.454Z,7.63
2023-02-07T14:23:59.158Z,8.95
2023-02-07T14:26:47.133Z,7.28
2023-02-07T14:29:20.197Z,7.50
2023-02-07T14:31:50.189Z,7.70
2023-02-07T14:34:21.040Z,7.18
2023-02-07T14:36:48.430Z,6.13
2023-02-07T14:39:17.935Z,6.28
2023-02-07T14:41:45.736Z,7.20
2023-02-07T14:44:21.639Z,6.70
2023-02-07T14:46:51.236Z,6.40
2023-02-07T14:49:24.519Z,6.93
2023-02-07T14:51:53.918Z,6.28
2023-02-07T14:54:40.904Z,6.90
2023-02-07T14:57:07.849Z,6.93
2023-02-07T14:59:45.239Z,6.55
2023-02-07T15:02:32.649Z,6.22
2023-02-07T15:05:11.227Z,6.05
2023-02-07T15:07:38.059Z,6.28
2023-02-07T15:10:15.551Z,6.28
2023-02-07T15:12:43.791Z,5.80
2023-02-07T15:15:17.282Z,6.35
2023-02-07T15:17:44.836Z,6.38
2023-02-07T15:20:14.790Z,7.10
2023-02-07T15:22:42.010Z,7.22
2023-02-07T15:25:13.017Z,6.40
2023-02-07T15:27:39.789Z,7.80
2023-02-07T15:30:08.614Z,7.43
2023-02-07T15:32:42.832Z,7.20
2023-02-07T15:35:20.187Z,6.88
2023-02-07T15:37:48.091Z,7.20
2023-02-07T15:40:15.520Z,7.38
2023-02-07T15:42:51.589Z,7.90
2023-02-07T15:45:24.547Z,7.78
2023-02-07T15:47:59.092Z,8.10
2023-02-07T15:50:27.296Z,7.95
2023-02-07T15:52:55.859Z,7.72
2023-02-07T15:55:22.713Z,8.15
2023-02-07T15:57:49.551Z,7.72
2023-02-07T16:00:22.681Z,7.35
2023-02-07T16:02:55.685Z,7.60
2023-02-07T16:05:42.874Z,7.65
2023-02-07T16:08:28.837Z,7.72
2023-02-07T16:11:11.014Z,7.90
2023-02-07T16:13:43.852Z,7.82
2023-02-07T16:16:18.943Z,8.20
2023-02-07T16:18:48.350Z,8.20
2023-02-07T16:21:23.255Z,9.10
2023-02-07T16:23:51.649Z,8.40
2023-02-07T16:26:19.992Z,8.30
2023-02-07T16:28:47.332Z,8.15
2023-02-07T16:31:14.336Z,7.45
2023-02-07T16:33:41.212Z,7.60
2023-02-07T16:36:16.065Z,7.53
2023-02-07T16:38:43.139Z,7.55
2023-02-07T16:41:19.152Z,7.70
2023-02-07T16:43:47.060Z,7.22
2023-02-07T16:46:16.716Z,7.95
2023-02-07T16:48:44.047Z,8.32
2023-02-07T16:51:10.864Z,9.88
2023-02-07T16:53:37.744Z,8.20
2023-02-07T16:56:04.695Z,8.93
2023-02-07T16:58:32.020Z,7.57
2023-02-07T17:00:58.876Z,8.70
2023-02-07T17:03:26.043Z,9.15
2023-02-07T17:05:52.921Z,8.50
2023-02-07T17:08:27.154Z,8.73
2023-02-07T17:10:57.712Z,8.95
2023-02-07T17:13:24.797Z,9.00
2023-02-07T17:15:51.672Z,8.60
2023-02-07T17:18:18.515Z,7.95
2023-02-07T17:20:45.696Z,9.13
2023-02-07T17:23:12.707Z,8.38
2023-02-07T17:25:39.388Z,8.27
2023-02-07T17:28:06.201Z,9.32
2023-02-07T17:30:41.138Z,9.15
2023-02-07T17:33:09.130Z,8.55
2023-02-07T17:35:36.326Z,7.88
2023-02-07T17:38:03.228Z,8.27
2023-02-07T17:40:31.467Z,8.82
2023-02-07T17:42:58.574Z,9.57
2023-02-07T17:45:27.097Z,8.98
2023-02-07T17:47:58.545Z,9.80
2023-02-07T17:50:27.461Z,9.98
2023-02-07T17:52:54.194Z,9.65
2023-02-07T17:55:21.140Z,8.55
2023-02-07T17:57:47.991Z,8.95
2023-02-07T18:00:21.234Z,9.00
2023-02-07T18:02:48.336Z,8.02
2023-02-07T18:05:15.849Z,9.48
2023-02-07T18:07:43.242Z,9.05
2023-02-07T18:10:12.752Z,9.77
2023-02-07T18:12:39.540Z,9.60
2023-02-07T18:15:08.992Z,9.98
2023-02-07T18:17:36.653Z,10.30
2023-02-07T18:20:04.893Z,10.02
2023-02-07T18:22:31.620Z,11.20
2023-02-07T18:24:58.695Z,10.30
2023-02-07T18:27:25.745Z,9.65
2023-02-07T18:29:52.475Z,10.02
2023-02-07T18:32:19.436Z,10.40
2023-02-07T18:34:46.149Z,9.68
2023-02-07T18:37:12.923Z,10.13
2023-02-07T18:39:40.117Z,10.57
2023-02-07T18:42:06.958Z,10.20
2023-02-07T18:44:33.815Z,10.07
2023-02-07T18:47:00.954Z,10.93
2023-02-07T18:49:28.198Z,10.63
2023-02-07T18:51:55.950Z,10.80
2023-02-07T18:54:22.814Z,10.45
2023-02-07T18:56:52.476Z,10.35
2023-02-07T18:59:23.415Z,10.90
2023-02-07T19:01:53.424Z,12.00
2023-02-07T19:04:21.012Z,11.98
2023-02-07T19:06:49.398Z,12.43
2023-02-07T19:09:17.341Z,12.15
2023-02-07T19:11:44.567Z,12.73
2023-02-07T19:14:15.776Z,12.77
2023-02-07T19:16:43.156Z,10.93
2023-02-07T19:19:14.175Z,11.23
2023-02-07T19:21:41.595Z,11.27
2023-02-07T19:24:09.389Z,11.48
2023-02-07T19:26:36.262Z,12.05
2023-02-07T19:29:05.274Z,12.80
2023-02-07T19:31:34.093Z,12.02
2023-02-07T19:34:00.955Z,12.70
2023-02-07T19:36:28.050Z,11.77
2023-02-07T19:38:54.985Z,12.63
2023-02-07T19:41:22.594Z,12.38
2023-02-07T19:43:49.513Z,12.70
2023-02-07T19:46:17.332Z,12.40
2023-02-07T19:48:44.730Z,12.00
2023-02-07T19:51:13.979Z,12.77
2023-02-07T19:53:42.723Z,13.88
2023-02-07T19:56:10.917Z,12.60
2023-02-07T19:58:39.877Z,13.38
2023-02-07T20:01:06.684Z,15.07
2023-02-07T20:03:34.067Z,14.00
2023-02-07T20:06:01.910Z,13.35
2023-02-07T20:08:28.817Z,14.65
2023-02-07T20:10:55.574Z,14.10
2023-02-07T20:13:22.319Z,14.80
2023-02-07T20:15:49.077Z,13.48
2023-02-07T20:18:16.088Z,15.48
2023-02-07T20:20:43.564Z,14.52
2023-02-07T20:23:10.684Z,15.05
2023-02-07T20:25:39.167Z,14.30
2023-02-07T20:28:06.924Z,16.20
2023-02-07T20:30:34.306Z,14.77
2023-02-07T20:33:01.128Z,16.05
2023-02-07T20:35:27.851Z,16.92
2023-02-07T20:37:54.747Z,14.50
2023-02-07T20:40:21.564Z,16.23
2023-02-07T20:42:48.393Z,16.30
2023-02-07T20:45:15.198Z,15.32
2023-02-07T20:47:41.908Z,15.18
2023-02-07T20:50:09.201Z,16.13
2023-02-07T20:52:37.503Z,15.77
2023-02-07T20:55:05.148Z,16.10
2023-02-07T20:57:32.166Z,16.25
2023-02-07T20:59:59.049Z,16.52
2023-02-07T21:02:25.951Z,16.80
2023-02-07T21:04:54.798Z,16.65
2023-02-07T21:07:21.684Z,17.58
2023-02-07T21:09:48.761Z,16.80
2023-02-07T21:12:15.736Z,16.45
2023-02-07T21:14:42.938Z,15.52
2023-02-07T21:17:10.331Z,16.17
2023-02-07T21:19:37.488Z,16.67
2023-02-07T21:22:04.889Z,16.88
2023-02-07T21:24:31.957Z,15.93
2023-02-07T21:26:59.053Z,16.08
2023-02-07T21:29:27.933Z,16.73
2023-02-07T21:31:54.872Z,15.30
2023-02-07T21:34:22.390Z,17.80
2023-02-07T21:36:49.895Z,16.48
2023-02-07T21:39:16.752Z,15.73
2023-02-07T21:41:44.806Z,16.10
2023-02-07T21:44:12.697Z,15.68
2023-02-07T21:46:40.425Z,15.38
2023-02-07T21:49:09.072Z,15.88
2023-02-07T21:51:36.548Z,13.65
2023-02-07T21:54:04.491Z,13.20
2023-02-07T21:56:32.960Z,13.88
2023-02-07T21:59:01.281Z,15.07
2023-02-07T22:01:29.172Z,15.70
2023-02-07T22:03:57.797Z,16.02
2023-02-07T22:06:24.668Z,17.65
2023-02-07T22:08:53.305Z,17.65
2023-02-07T22:11:21.768Z,16.58
2023-02-07T22:13:50.023Z,16.58
2023-02-07T22:16:17.595Z,17.60
2023-02-07T22:18:44.426Z,17.75
2023-02-07T22:21:15.637Z,18.00
2023-02-07T22:23:42.770Z,16.33
2023-02-07T22:26:09.931Z,17.42
2023-02-07T22:28:37.311Z,16.30
2023-02-07T22:31:11.627Z,16.83
2023-02-07T22:33:38.500Z,15.55
2023-02-07T22:36:10.928Z,15.70
2023-02-07T22:38:37.934Z,15.05
2023-02-07T22:41:05.203Z,14.55
2023-02-07T22:43:32.150Z,15.98
2023-02-07T22:46:02.144Z,14.93
2023-02-07T22:48:28.892Z,17.55
2023-02-07T22:50:55.765Z,16.17
2023-02-07T22:53:22.728Z,16.02
2023-02-07T22:55:49.572Z,16.10
2023-02-07T22:58:16.666Z,16.95
2023-02-07T23:00:43.497Z,17.20
2023-02-07T23:03:10.354Z,15.95
2023-02-07T23:05:38.042Z,15.40
2023-02-07T23:08:05.265Z,17.00
2023-02-07T23:10:32.094Z,16.58
2023-02-07T23:12:58.890Z,14.80
2023-02-07T23:15:25.760Z,16.52
2023-02-07T23:17:52.624Z,16.75
2023-02-07T23:20:19.452Z,16.65
2023-02-07T23:22:46.427Z,15.75
2023-02-07T23:25:16.037Z,15.50
2023-02-07T23:27:43.667Z,15.10
2023-02-07T23:30:12.090Z,16.90
2023-02-07T23:32:39.295Z,16.77
2023-02-07T23:35:06.421Z,15.02
2023-02-07T23:37:33.469Z,15.23
2023-02-07T23:40:00.225Z,16.38
2023-02-07T23:42:27.183Z,15.63
2023-02-07T23:44:54.222Z,14.38
2023-02-07T23:47:20.977Z,16.40
2023-02-07T23:49:47.877Z,15.05
2023-02-07T23:52:14.800Z,14.13
2023-02-07T23:54:41.780Z,16.23
2023-02-07T23:57:08.627Z,15.82
2023-02-07T23:59:35.614Z,15.82
